sensor_id;sensor_type;location;lat;lon;timestamp;temperature;humidity
48806;DHT22;34625;47.176;27.548;2023-06-10T00:01:58;26.50;44.20
48806;DHT22;34625;47.176;27.548;2023-06-10T00:04:28;26.40;44.30
48806;DHT22;34625;47.176;27.548;2023-06-10T00:06:54;26.50;44.30
48806;DHT22;34625;47.176;27.548;2023-06-10T00:09:20;26.50;44.30
48806;DHT22;34625;47.176;27.548;2023-06-10T00:11:47;26.60;44.40
48806;DHT22;34625;47.176;27.548;2023-06-10T00:14:13;26.50;44.40
48806;DHT22;34625;47.176;27.548;2023-06-10T00:16:39;26.60;44.40
48806;DHT22;34625;47.176;27.548;2023-06-10T00:19:06;26.60;44.40
48806;DHT22;34625;47.176;27.548;2023-06-10T00:21:33;26.60;44.50
48806;DHT22;34625;47.176;27.548;2023-06-10T00:24:10;26.60;44.50
48806;DHT22;34625;47.176;27.548;2023-06-10T00:26:41;26.50;44.60
48806;DHT22;34625;47.176;27.548;2023-06-10T00:29:08;26.70;44.60
48806;DHT22;34625;47.176;27.548;2023-06-10T00:31:34;26.50;44.60
48806;DHT22;34625;47.176;27.548;2023-06-10T00:34:01;26.70;44.60
48806;DHT22;34625;47.176;27.548;2023-06-10T00:36:28;26.70;44.70
48806;DHT22;34625;47.176;27.548;2023-06-10T00:38:56;26.60;44.70
48806;DHT22;34625;47.176;27.548;2023-06-10T00:41:22;26.60;44.70
48806;DHT22;34625;47.176;27.548;2023-06-10T00:43:49;26.70;44.70
48806;DHT22;34625;47.176;27.548;2023-06-10T00:46:16;26.70;44.70
48806;DHT22;34625;47.176;27.548;2023-06-10T00:48:43;26.60;44.80
48806;DHT22;34625;47.176;27.548;2023-06-10T00:51:11;26.70;44.80
48806;DHT22;34625;47.176;27.548;2023-06-10T00:53:40;26.70;44.80
48806;DHT22;34625;47.176;27.548;2023-06-10T00:56:07;26.60;44.90
48806;DHT22;34625;47.176;27.548;2023-06-10T00:58:35;26.70;44.90
48806;DHT22;34625;47.176;27.548;2023-06-10T01:01:01;26.70;44.90
48806;DHT22;34625;47.176;27.548;2023-06-10T01:03:27;26.70;45.00
48806;DHT22;34625;47.176;27.548;2023-06-10T01:08:55;26.60;45.00
48806;DHT22;34625;47.176;27.548;2023-06-10T01:11:28;26.70;45.00
48806;DHT22;34625;47.176;27.548;2023-06-10T01:13:55;26.70;45.00
48806;DHT22;34625;47.176;27.548;2023-06-10T01:16:23;26.70;45.00
48806;DHT22;34625;47.176;27.548;2023-06-10T01:18:50;26.70;45.10
48806;DHT22;34625;47.176;27.548;2023-06-10T01:21:22;26.70;45.10
48806;DHT22;34625;47.176;27.548;2023-06-10T01:23:52;26.70;45.10
48806;DHT22;34625;47.176;27.548;2023-06-10T01:26:20;26.80;45.10
48806;DHT22;34625;47.176;27.548;2023-06-10T01:29:04;26.70;45.10
48806;DHT22;34625;47.176;27.548;2023-06-10T01:31:43;26.70;45.20
48806;DHT22;34625;47.176;27.548;2023-06-10T01:34:14;26.60;45.20
48806;DHT22;34625;47.176;27.548;2023-06-10T01:36:45;26.60;45.20
48806;DHT22;34625;47.176;27.548;2023-06-10T01:39:16;26.60;45.20
48806;DHT22;34625;47.176;27.548;2023-06-10T01:41:43;26.50;45.20
48806;DHT22;34625;47.176;27.548;2023-06-10T01:44:10;26.60;45.30
48806;DHT22;34625;47.176;27.548;2023-06-10T01:46:36;26.50;45.30
48806;DHT22;34625;47.176;27.548;2023-06-10T01:49:02;26.70;45.40
48806;DHT22;34625;47.176;27.548;2023-06-10T01:51:28;26.60;45.50
48806;DHT22;34625;47.176;27.548;2023-06-10T01:53:55;26.60;45.50
48806;DHT22;34625;47.176;27.548;2023-06-10T01:56:21;26.60;45.50
48806;DHT22;34625;47.176;27.548;2023-06-10T01:58:47;26.60;45.50
48806;DHT22;34625;47.176;27.548;2023-06-10T02:01:13;26.70;45.50
48806;DHT22;34625;47.176;27.548;2023-06-10T02:03:39;26.70;45.60
48806;DHT22;34625;47.176;27.548;2023-06-10T02:06:05;26.60;45.60
48806;DHT22;34625;47.176;27.548;2023-06-10T02:08:32;26.60;45.60
48806;DHT22;34625;47.176;27.548;2023-06-10T02:11:00;26.60;45.60
48806;DHT22;34625;47.176;27.548;2023-06-10T02:13:27;26.70;45.60
48806;DHT22;34625;47.176;27.548;2023-06-10T02:15:54;26.60;45.70
48806;DHT22;34625;47.176;27.548;2023-06-10T02:18:20;26.70;45.70
48806;DHT22;34625;47.176;27.548;2023-06-10T02:20:46;26.60;45.70
48806;DHT22;34625;47.176;27.548;2023-06-10T02:23:12;26.60;45.70
48806;DHT22;34625;47.176;27.548;2023-06-10T02:25:38;26.60;45.80
48806;DHT22;34625;47.176;27.548;2023-06-10T02:28:04;26.50;45.80
48806;DHT22;34625;47.176;27.548;2023-06-10T02:30:30;26.60;45.80
48806;DHT22;34625;47.176;27.548;2023-06-10T02:32:56;26.50;45.80
48806;DHT22;34625;47.176;27.548;2023-06-10T02:35:24;26.70;45.80
48806;DHT22;34625;47.176;27.548;2023-06-10T02:37:52;26.50;45.80
48806;DHT22;34625;47.176;27.548;2023-06-10T02:40:19;26.50;45.90
48806;DHT22;34625;47.176;27.548;2023-06-10T02:42:45;26.50;45.90
48806;DHT22;34625;47.176;27.548;2023-06-10T02:45:11;26.40;46.00
48806;DHT22;34625;47.176;27.548;2023-06-10T02:47:41;26.60;46.00
48806;DHT22;34625;47.176;27.548;2023-06-10T02:50:09;26.40;46.10
48806;DHT22;34625;47.176;27.548;2023-06-10T02:52:41;26.60;46.10
48806;DHT22;34625;47.176;27.548;2023-06-10T02:55:09;26.60;46.10
48806;DHT22;34625;47.176;27.548;2023-06-10T02:57:36;26.50;46.10
48806;DHT22;34625;47.176;27.548;2023-06-10T03:00:04;26.50;46.20
48806;DHT22;34625;47.176;27.548;2023-06-10T03:02:35;26.60;46.20
48806;DHT22;34625;47.176;27.548;2023-06-10T03:05:04;26.50;46.20
48806;DHT22;34625;47.176;27.548;2023-06-10T03:07:31;26.50;46.20
48806;DHT22;34625;47.176;27.548;2023-06-10T03:09:59;26.50;46.30
48806;DHT22;34625;47.176;27.548;2023-06-10T03:12:26;26.60;46.30
48806;DHT22;34625;47.176;27.548;2023-06-10T03:14:52;26.50;46.30
48806;DHT22;34625;47.176;27.548;2023-06-10T03:17:18;26.50;46.30
48806;DHT22;34625;47.176;27.548;2023-06-10T03:19:45;26.50;46.30
48806;DHT22;34625;47.176;27.548;2023-06-10T03:22:15;26.60;46.30
48806;DHT22;34625;47.176;27.548;2023-06-10T03:24:49;26.50;46.30
48806;DHT22;34625;47.176;27.548;2023-06-10T03:27:16;26.60;46.30
48806;DHT22;34625;47.176;27.548;2023-06-10T03:29:46;26.40;46.40
48806;DHT22;34625;47.176;27.548;2023-06-10T03:32:12;26.40;46.30
48806;DHT22;34625;47.176;27.548;2023-06-10T03:34:40;26.50;46.40
48806;DHT22;34625;47.176;27.548;2023-06-10T03:37:07;26.40;46.40
48806;DHT22;34625;47.176;27.548;2023-06-10T03:39:33;26.40;46.40
48806;DHT22;34625;47.176;27.548;2023-06-10T03:42:00;26.50;46.50
48806;DHT22;34625;47.176;27.548;2023-06-10T03:44:28;26.50;46.50
48806;DHT22;34625;47.176;27.548;2023-06-10T03:46:55;26.50;46.60
48806;DHT22;34625;47.176;27.548;2023-06-10T03:49:21;26.40;46.60
48806;DHT22;34625;47.176;27.548;2023-06-10T03:51:52;26.40;46.60
48806;DHT22;34625;47.176;27.548;2023-06-10T03:54:18;26.50;46.70
48806;DHT22;34625;47.176;27.548;2023-06-10T03:56:44;26.50;46.70
48806;DHT22;34625;47.176;27.548;2023-06-10T03:59:10;26.50;46.70
48806;DHT22;34625;47.176;27.548;2023-06-10T04:01:36;26.50;46.70
48806;DHT22;34625;47.176;27.548;2023-06-10T04:04:03;26.70;46.60
48806;DHT22;34625;47.176;27.548;2023-06-10T04:06:33;26.40;46.70
48806;DHT22;34625;47.176;27.548;2023-06-10T04:08:59;26.60;46.70
48806;DHT22;34625;47.176;27.548;2023-06-10T04:11:27;26.60;46.70
48806;DHT22;34625;47.176;27.548;2023-06-10T04:13:54;26.50;46.70
48806;DHT22;34625;47.176;27.548;2023-06-10T04:16:21;26.50;46.70
48806;DHT22;34625;47.176;27.548;2023-06-10T04:18:48;26.40;46.70
48806;DHT22;34625;47.176;27.548;2023-06-10T04:21:14;26.50;46.70
48806;DHT22;34625;47.176;27.548;2023-06-10T04:23:40;26.50;46.70
48806;DHT22;34625;47.176;27.548;2023-06-10T04:26:10;26.50;46.70
48806;DHT22;34625;47.176;27.548;2023-06-10T04:28:38;26.40;46.70
48806;DHT22;34625;47.176;27.548;2023-06-10T04:31:04;26.50;46.70
48806;DHT22;34625;47.176;27.548;2023-06-10T04:33:30;26.30;46.80
48806;DHT22;34625;47.176;27.548;2023-06-10T04:35:58;26.50;46.90
48806;DHT22;34625;47.176;27.548;2023-06-10T04:38:27;26.40;46.90
48806;DHT22;34625;47.176;27.548;2023-06-10T04:40:53;26.40;46.90
48806;DHT22;34625;47.176;27.548;2023-06-10T04:43:21;26.50;47.10
48806;DHT22;34625;47.176;27.548;2023-06-10T04:45:47;26.50;47.10
48806;DHT22;34625;47.176;27.548;2023-06-10T04:48:13;26.50;47.00
48806;DHT22;34625;47.176;27.548;2023-06-10T04:50:39;26.60;47.10
48806;DHT22;34625;47.176;27.548;2023-06-10T04:53:05;26.50;47.10
48806;DHT22;34625;47.176;27.548;2023-06-10T04:55:37;26.40;47.10
48806;DHT22;34625;47.176;27.548;2023-06-10T04:58:02;26.50;47.10
48806;DHT22;34625;47.176;27.548;2023-06-10T05:00:29;26.60;47.10
48806;DHT22;34625;47.176;27.548;2023-06-10T05:02:55;26.60;47.10
48806;DHT22;34625;47.176;27.548;2023-06-10T05:05:21;26.60;47.00
48806;DHT22;34625;47.176;27.548;2023-06-10T05:07:48;26.60;47.00
48806;DHT22;34625;47.176;27.548;2023-06-10T05:10:14;26.50;47.10
48806;DHT22;34625;47.176;27.548;2023-06-10T05:12:40;26.40;47.10
48806;DHT22;34625;47.176;27.548;2023-06-10T05:15:07;26.50;47.10
48806;DHT22;34625;47.176;27.548;2023-06-10T05:17:33;26.40;47.10
48806;DHT22;34625;47.176;27.548;2023-06-10T05:20:01;26.50;47.10
48806;DHT22;34625;47.176;27.548;2023-06-10T05:22:27;26.40;47.10
48806;DHT22;34625;47.176;27.548;2023-06-10T05:24:53;26.50;47.10
48806;DHT22;34625;47.176;27.548;2023-06-10T05:27:19;26.50;47.20
48806;DHT22;34625;47.176;27.548;2023-06-10T05:29:46;26.40;47.20
48806;DHT22;34625;47.176;27.548;2023-06-10T05:32:12;26.50;47.30
48806;DHT22;34625;47.176;27.548;2023-06-10T05:34:38;26.40;47.30
48806;DHT22;34625;47.176;27.548;2023-06-10T05:37:05;26.40;47.30
48806;DHT22;34625;47.176;27.548;2023-06-10T05:39:31;26.30;47.40
48806;DHT22;34625;47.176;27.548;2023-06-10T05:41:57;26.50;47.40
48806;DHT22;34625;47.176;27.548;2023-06-10T05:44:25;26.50;47.40
48806;DHT22;34625;47.176;27.548;2023-06-10T05:46:51;26.50;47.40
48806;DHT22;34625;47.176;27.548;2023-06-10T05:49:17;26.50;47.40
48806;DHT22;34625;47.176;27.548;2023-06-10T05:51:43;26.50;47.40
48806;DHT22;34625;47.176;27.548;2023-06-10T05:54:09;26.60;47.40
48806;DHT22;34625;47.176;27.548;2023-06-10T05:56:35;26.40;47.40
48806;DHT22;34625;47.176;27.548;2023-06-10T05:59:01;26.50;47.40
48806;DHT22;34625;47.176;27.548;2023-06-10T06:01:27;26.50;47.40
48806;DHT22;34625;47.176;27.548;2023-06-10T06:03:53;26.50;47.40
48806;DHT22;34625;47.176;27.548;2023-06-10T06:06:19;26.40;47.40
48806;DHT22;34625;47.176;27.548;2023-06-10T06:08:46;26.50;47.40
48806;DHT22;34625;47.176;27.548;2023-06-10T06:11:12;26.30;47.40
48806;DHT22;34625;47.176;27.548;2023-06-10T06:13:39;26.40;47.40
48806;DHT22;34625;47.176;27.548;2023-06-10T06:16:05;26.50;47.50
48806;DHT22;34625;47.176;27.548;2023-06-10T06:18:31;26.40;47.50
48806;DHT22;34625;47.176;27.548;2023-06-10T06:20:57;26.30;47.60
48806;DHT22;34625;47.176;27.548;2023-06-10T06:23:23;26.30;47.60
48806;DHT22;34625;47.176;27.548;2023-06-10T06:25:49;26.40;47.70
48806;DHT22;34625;47.176;27.548;2023-06-10T06:28:15;26.30;47.70
48806;DHT22;34625;47.176;27.548;2023-06-10T06:30:41;26.40;47.70
48806;DHT22;34625;47.176;27.548;2023-06-10T06:33:07;26.50;47.70
48806;DHT22;34625;47.176;27.548;2023-06-10T06:35:33;26.50;47.70
48806;DHT22;34625;47.176;27.548;2023-06-10T06:37:59;26.50;47.70
48806;DHT22;34625;47.176;27.548;2023-06-10T06:40:28;26.50;47.80
48806;DHT22;34625;47.176;27.548;2023-06-10T06:42:54;26.40;47.70
48806;DHT22;34625;47.176;27.548;2023-06-10T06:45:56;26.60;47.80
48806;DHT22;34625;47.176;27.548;2023-06-10T06:48:23;26.50;47.70
48806;DHT22;34625;47.176;27.548;2023-06-10T06:50:49;26.50;47.80
48806;DHT22;34625;47.176;27.548;2023-06-10T06:53:15;26.40;47.80
48806;DHT22;34625;47.176;27.548;2023-06-10T06:55:41;26.60;47.80
48806;DHT22;34625;47.176;27.548;2023-06-10T06:58:07;26.40;47.80
48806;DHT22;34625;47.176;27.548;2023-06-10T07:00:33;26.30;47.90
48806;DHT22;34625;47.176;27.548;2023-06-10T07:02:59;26.40;47.70
48806;DHT22;34625;47.176;27.548;2023-06-10T07:05:26;26.50;48.90
48806;DHT22;34625;47.176;27.548;2023-06-10T07:07:57;26.60;47.40
48806;DHT22;34625;47.176;27.548;2023-06-10T07:10:24;26.50;47.00
48806;DHT22;34625;47.176;27.548;2023-06-10T07:12:56;26.40;46.70
48806;DHT22;34625;47.176;27.548;2023-06-10T07:15:31;26.40;46.80
48806;DHT22;34625;47.176;27.548;2023-06-10T07:18:19;26.50;47.80
48806;DHT22;34625;47.176;27.548;2023-06-10T07:20:45;26.60;48.60
48806;DHT22;34625;47.176;27.548;2023-06-10T07:23:11;26.70;47.40
48806;DHT22;34625;47.176;27.548;2023-06-10T07:25:41;26.70;47.60
48806;DHT22;34625;47.176;27.548;2023-06-10T07:28:09;26.70;47.10
48806;DHT22;34625;47.176;27.548;2023-06-10T07:30:38;26.80;48.00
48806;DHT22;34625;47.176;27.548;2023-06-10T07:33:06;26.80;48.00
48806;DHT22;34625;47.176;27.548;2023-06-10T07:35:33;26.80;47.60
48806;DHT22;34625;47.176;27.548;2023-06-10T07:37:59;26.80;47.40
48806;DHT22;34625;47.176;27.548;2023-06-10T07:40:25;26.80;46.70
48806;DHT22;34625;47.176;27.548;2023-06-10T07:42:51;26.80;47.40
48806;DHT22;34625;47.176;27.548;2023-06-10T07:45:18;26.90;47.00
48806;DHT22;34625;47.176;27.548;2023-06-10T07:47:44;26.80;47.90
48806;DHT22;34625;47.176;27.548;2023-06-10T07:50:10;26.80;47.00
48806;DHT22;34625;47.176;27.548;2023-06-10T07:52:36;26.80;46.90
48806;DHT22;34625;47.176;27.548;2023-06-10T07:55:03;26.80;46.90
48806;DHT22;34625;47.176;27.548;2023-06-10T07:57:30;26.80;46.90
48806;DHT22;34625;47.176;27.548;2023-06-10T08:00:00;26.90;46.70
48806;DHT22;34625;47.176;27.548;2023-06-10T08:02:38;26.90;46.70
48806;DHT22;34625;47.176;27.548;2023-06-10T08:05:05;26.90;46.60
48806;DHT22;34625;47.176;27.548;2023-06-10T08:07:31;27.10;47.50
48806;DHT22;34625;47.176;27.548;2023-06-10T08:09:57;27.00;47.40
48806;DHT22;34625;47.176;27.548;2023-06-10T08:12:23;27.00;47.30
48806;DHT22;34625;47.176;27.548;2023-06-10T08:14:49;27.10;47.30
48806;DHT22;34625;47.176;27.548;2023-06-10T08:17:15;27.20;47.40
48806;DHT22;34625;47.176;27.548;2023-06-10T08:19:41;27.10;47.50
48806;DHT22;34625;47.176;27.548;2023-06-10T08:22:07;27.10;47.60
48806;DHT22;34625;47.176;27.548;2023-06-10T08:24:33;27.10;47.70
48806;DHT22;34625;47.176;27.548;2023-06-10T08:26:59;27.00;47.90
48806;DHT22;34625;47.176;27.548;2023-06-10T08:29:25;27.20;48.00
48806;DHT22;34625;47.176;27.548;2023-06-10T08:31:51;27.10;48.20
48806;DHT22;34625;47.176;27.548;2023-06-10T08:34:26;27.30;49.10
48806;DHT22;34625;47.176;27.548;2023-06-10T08:36:52;27.20;49.50
48806;DHT22;34625;47.176;27.548;2023-06-10T08:39:21;27.20;49.30
48806;DHT22;34625;47.176;27.548;2023-06-10T08:44:43;27.10;49.10
48806;DHT22;34625;47.176;27.548;2023-06-10T08:47:16;27.00;51.60
48806;DHT22;34625;47.176;27.548;2023-06-10T08:49:46;27.40;59.20
48806;DHT22;34625;47.176;27.548;2023-06-10T08:52:21;27.40;56.50
48806;DHT22;34625;47.176;27.548;2023-06-10T08:55:21;27.40;55.50
48806;DHT22;34625;47.176;27.548;2023-06-10T08:57:52;27.40;53.90
48806;DHT22;34625;47.176;27.548;2023-06-10T09:00:19;27.30;52.70
48806;DHT22;34625;47.176;27.548;2023-06-10T09:02:45;27.30;52.90
48806;DHT22;34625;47.176;27.548;2023-06-10T09:05:14;27.40;52.90
48806;DHT22;34625;47.176;27.548;2023-06-10T09:07:41;27.40;52.10
48806;DHT22;34625;47.176;27.548;2023-06-10T09:10:08;27.40;51.60
48806;DHT22;34625;47.176;27.548;2023-06-10T09:12:34;27.30;50.90
48806;DHT22;34625;47.176;27.548;2023-06-10T09:15:01;27.30;50.60
48806;DHT22;34625;47.176;27.548;2023-06-10T09:17:28;27.30;50.20
48806;DHT22;34625;47.176;27.548;2023-06-10T09:19:54;27.30;49.90
48806;DHT22;34625;47.176;27.548;2023-06-10T09:22:22;27.40;49.60
48806;DHT22;34625;47.176;27.548;2023-06-10T09:24:48;27.40;49.40
48806;DHT22;34625;47.176;27.548;2023-06-10T09:27:14;27.30;49.20
48806;DHT22;34625;47.176;27.548;2023-06-10T09:29:53;27.40;49.00
48806;DHT22;34625;47.176;27.548;2023-06-10T09:32:20;27.40;48.90
48806;DHT22;34625;47.176;27.548;2023-06-10T09:34:46;27.30;48.80
48806;DHT22;34625;47.176;27.548;2023-06-10T09:37:13;27.40;48.90
48806;DHT22;34625;47.176;27.548;2023-06-10T09:39:42;27.40;48.90
48806;DHT22;34625;47.176;27.548;2023-06-10T09:42:18;27.50;49.10
48806;DHT22;34625;47.176;27.548;2023-06-10T09:44:53;27.30;48.80
48806;DHT22;34625;47.176;27.548;2023-06-10T09:47:22;27.30;48.70
48806;DHT22;34625;47.176;27.548;2023-06-10T09:49:49;27.50;48.70
48806;DHT22;34625;47.176;27.548;2023-06-10T09:52:34;27.40;48.80
48806;DHT22;34625;47.176;27.548;2023-06-10T09:55:03;27.40;48.80
48806;DHT22;34625;47.176;27.548;2023-06-10T09:57:32;27.40;49.10
48806;DHT22;34625;47.176;27.548;2023-06-10T10:00:11;27.30;49.10
48806;DHT22;34625;47.176;27.548;2023-06-10T10:05:16;27.30;48.30
48806;DHT22;34625;47.176;27.548;2023-06-10T10:07:44;27.40;48.60
48806;DHT22;34625;47.176;27.548;2023-06-10T10:10:10;27.40;48.70
48806;DHT22;34625;47.176;27.548;2023-06-10T10:12:40;27.40;48.50
48806;DHT22;34625;47.176;27.548;2023-06-10T10:15:08;27.30;48.40
48806;DHT22;34625;47.176;27.548;2023-06-10T10:20:26;27.50;48.30
48806;DHT22;34625;47.176;27.548;2023-06-10T10:22:56;27.40;48.40
48806;DHT22;34625;47.176;27.548;2023-06-10T10:25:35;27.30;48.50
48806;DHT22;34625;47.176;27.548;2023-06-10T10:30:30;27.40;48.60
48806;DHT22;34625;47.176;27.548;2023-06-10T10:33:00;27.20;48.60
48806;DHT22;34625;47.176;27.548;2023-06-10T10:35:30;27.40;48.60
48806;DHT22;34625;47.176;27.548;2023-06-10T10:37:58;27.30;48.60
48806;DHT22;34625;47.176;27.548;2023-06-10T10:40:26;27.30;48.50
48806;DHT22;34625;47.176;27.548;2023-06-10T10:42:56;27.40;48.30
48806;DHT22;34625;47.176;27.548;2023-06-10T10:45:22;27.10;48.40
48806;DHT22;34625;47.176;27.548;2023-06-10T10:47:52;27.20;48.60
48806;DHT22;34625;47.176;27.548;2023-06-10T10:50:20;27.20;48.50
48806;DHT22;34625;47.176;27.548;2023-06-10T10:53:06;27.20;48.40
48806;DHT22;34625;47.176;27.548;2023-06-10T10:55:36;27.20;48.40
48806;DHT22;34625;47.176;27.548;2023-06-10T10:58:10;27.20;48.40
48806;DHT22;34625;47.176;27.548;2023-06-10T11:00:49;27.20;48.50
48806;DHT22;34625;47.176;27.548;2023-06-10T11:03:16;27.20;48.50
48806;DHT22;34625;47.176;27.548;2023-06-10T11:05:47;27.30;48.50
48806;DHT22;34625;47.176;27.548;2023-06-10T11:08:16;27.30;48.50
48806;DHT22;34625;47.176;27.548;2023-06-10T11:11:18;27.30;48.50
48806;DHT22;34625;47.176;27.548;2023-06-10T11:16:28;27.50;48.40
48806;DHT22;34625;47.176;27.548;2023-06-10T11:18:54;27.30;48.40
48806;DHT22;34625;47.176;27.548;2023-06-10T11:21:23;27.20;48.70
48806;DHT22;34625;47.176;27.548;2023-06-10T11:23:50;27.30;49.40
48806;DHT22;34625;47.176;27.548;2023-06-10T11:26:17;27.60;50.70
48806;DHT22;34625;47.176;27.548;2023-06-10T11:31:22;27.60;50.00
48806;DHT22;34625;47.176;27.548;2023-06-10T11:33:57;27.50;50.50
48806;DHT22;34625;47.176;27.548;2023-06-10T11:36:24;27.50;47.70
48806;DHT22;34625;47.176;27.548;2023-06-10T11:39:03;27.50;48.20
48806;DHT22;34625;47.176;27.548;2023-06-10T11:41:30;27.50;48.20
48806;DHT22;34625;47.176;27.548;2023-06-10T11:44:11;27.50;49.20
48806;DHT22;34625;47.176;27.548;2023-06-10T11:46:37;27.60;50.20
48806;DHT22;34625;47.176;27.548;2023-06-10T11:49:05;27.70;51.50
48806;DHT22;34625;47.176;27.548;2023-06-10T11:51:39;27.90;51.30
48806;DHT22;34625;47.176;27.548;2023-06-10T11:54:08;27.90;52.90
48806;DHT22;34625;47.176;27.548;2023-06-10T11:56:34;28.00;55.10
48806;DHT22;34625;47.176;27.548;2023-06-10T11:59:05;28.00;51.20
48806;DHT22;34625;47.176;27.548;2023-06-10T12:01:37;28.20;53.00
48806;DHT22;34625;47.176;27.548;2023-06-10T12:04:15;28.30;49.80
48806;DHT22;34625;47.176;27.548;2023-06-10T12:06:57;28.30;50.30
48806;DHT22;34625;47.176;27.548;2023-06-10T12:10:00;28.40;49.80
48806;DHT22;34625;47.176;27.548;2023-06-10T12:12:26;28.50;51.80
48806;DHT22;34625;47.176;27.548;2023-06-10T12:20:05;28.70;53.10
48806;DHT22;34625;47.176;27.548;2023-06-10T12:22:42;28.70;51.10
48806;DHT22;34625;47.176;27.548;2023-06-10T12:25:12;28.80;50.30
48806;DHT22;34625;47.176;27.548;2023-06-10T12:27:40;28.70;49.10
48806;DHT22;34625;47.176;27.548;2023-06-10T12:30:07;28.90;49.20
48806;DHT22;34625;47.176;27.548;2023-06-10T12:32:40;28.80;49.30
48806;DHT22;34625;47.176;27.548;2023-06-10T12:35:08;28.80;49.50
48806;DHT22;34625;47.176;27.548;2023-06-10T12:37:34;28.80;49.50
48806;DHT22;34625;47.176;27.548;2023-06-10T12:40:02;28.60;49.60
48806;DHT22;34625;47.176;27.548;2023-06-10T12:42:29;28.70;49.70
48806;DHT22;34625;47.176;27.548;2023-06-10T12:44:56;28.60;49.80
48806;DHT22;34625;47.176;27.548;2023-06-10T12:47:36;28.70;49.60
48806;DHT22;34625;47.176;27.548;2023-06-10T12:50:04;28.60;49.00
48806;DHT22;34625;47.176;27.548;2023-06-10T12:52:30;28.60;48.40
48806;DHT22;34625;47.176;27.548;2023-06-10T12:54:57;28.60;47.90
48806;DHT22;34625;47.176;27.548;2023-06-10T12:57:23;28.60;47.70
48806;DHT22;34625;47.176;27.548;2023-06-10T12:59:49;28.60;47.40
48806;DHT22;34625;47.176;27.548;2023-06-10T13:02:19;28.50;46.90
48806;DHT22;34625;47.176;27.548;2023-06-10T13:04:46;28.50;46.80
48806;DHT22;34625;47.176;27.548;2023-06-10T13:07:12;28.40;46.80
48806;DHT22;34625;47.176;27.548;2023-06-10T13:09:38;28.40;46.80
48806;DHT22;34625;47.176;27.548;2023-06-10T13:12:05;28.50;46.90
48806;DHT22;34625;47.176;27.548;2023-06-10T13:14:31;28.30;46.90
48806;DHT22;34625;47.176;27.548;2023-06-10T13:16:57;28.30;46.80
48806;DHT22;34625;47.176;27.548;2023-06-10T13:19:23;28.30;46.60
48806;DHT22;34625;47.176;27.548;2023-06-10T13:21:49;28.30;46.30
48806;DHT22;34625;47.176;27.548;2023-06-10T13:24:15;28.20;46.00
48806;DHT22;34625;47.176;27.548;2023-06-10T13:26:41;28.20;45.60
48806;DHT22;34625;47.176;27.548;2023-06-10T13:29:07;28.10;45.30
48806;DHT22;34625;47.176;27.548;2023-06-10T13:31:39;28.10;45.00
48806;DHT22;34625;47.176;27.548;2023-06-10T13:34:05;28.00;44.70
48806;DHT22;34625;47.176;27.548;2023-06-10T13:36:34;28.10;44.50
48806;DHT22;34625;47.176;27.548;2023-06-10T13:39:01;28.10;44.40
48806;DHT22;34625;47.176;27.548;2023-06-10T13:41:27;27.90;43.60
48806;DHT22;34625;47.176;27.548;2023-06-10T13:43:57;28.10;44.10
48806;DHT22;34625;47.176;27.548;2023-06-10T13:46:23;27.80;43.40
48806;DHT22;34625;47.176;27.548;2023-06-10T13:48:49;27.70;43.00
48806;DHT22;34625;47.176;27.548;2023-06-10T13:51:15;27.90;42.90
48806;DHT22;34625;47.176;27.548;2023-06-10T13:53:43;27.90;42.70
48806;DHT22;34625;47.176;27.548;2023-06-10T13:56:11;27.70;42.50
48806;DHT22;34625;47.176;27.548;2023-06-10T13:58:37;27.70;42.40
48806;DHT22;34625;47.176;27.548;2023-06-10T14:01:06;27.70;42.40
48806;DHT22;34625;47.176;27.548;2023-06-10T14:03:32;27.70;42.10
48806;DHT22;34625;47.176;27.548;2023-06-10T14:05:58;27.70;41.90
48806;DHT22;34625;47.176;27.548;2023-06-10T14:08:24;27.70;41.70
48806;DHT22;34625;47.176;27.548;2023-06-10T14:10:50;27.60;41.50
48806;DHT22;34625;47.176;27.548;2023-06-10T14:13:19;27.80;41.40
48806;DHT22;34625;47.176;27.548;2023-06-10T14:15:45;27.60;41.20
48806;DHT22;34625;47.176;27.548;2023-06-10T14:18:14;27.70;41.10
48806;DHT22;34625;47.176;27.548;2023-06-10T14:20:40;27.70;40.90
48806;DHT22;34625;47.176;27.548;2023-06-10T14:23:06;27.60;40.80
48806;DHT22;34625;47.176;27.548;2023-06-10T14:25:32;27.50;40.70
48806;DHT22;34625;47.176;27.548;2023-06-10T14:27:58;27.50;40.60
48806;DHT22;34625;47.176;27.548;2023-06-10T14:30:30;27.70;40.50
48806;DHT22;34625;47.176;27.548;2023-06-10T14:32:56;27.60;40.40
48806;DHT22;34625;47.176;27.548;2023-06-10T14:35:22;27.60;40.30
48806;DHT22;34625;47.176;27.548;2023-06-10T14:37:48;27.60;40.20
48806;DHT22;34625;47.176;27.548;2023-06-10T14:40:14;27.40;40.10
48806;DHT22;34625;47.176;27.548;2023-06-10T14:42:40;27.60;40.00
48806;DHT22;34625;47.176;27.548;2023-06-10T14:45:07;27.50;40.00
48806;DHT22;34625;47.176;27.548;2023-06-10T14:47:33;27.50;39.90
48806;DHT22;34625;47.176;27.548;2023-06-10T14:49:59;27.50;39.80
48806;DHT22;34625;47.176;27.548;2023-06-10T14:52:25;27.60;39.70
48806;DHT22;34625;47.176;27.548;2023-06-10T14:54:51;27.40;39.70
48806;DHT22;34625;47.176;27.548;2023-06-10T14:57:17;27.30;39.60
48806;DHT22;34625;47.176;27.548;2023-06-10T14:59:43;27.40;39.50
48806;DHT22;34625;47.176;27.548;2023-06-10T15:02:09;27.40;39.50
48806;DHT22;34625;47.176;27.548;2023-06-10T15:04:35;27.50;39.40
48806;DHT22;34625;47.176;27.548;2023-06-10T15:07:01;27.50;39.40
48806;DHT22;34625;47.176;27.548;2023-06-10T15:09:27;27.50;39.30
48806;DHT22;34625;47.176;27.548;2023-06-10T15:11:53;27.50;39.30
48806;DHT22;34625;47.176;27.548;2023-06-10T15:14:22;27.50;39.30
48806;DHT22;34625;47.176;27.548;2023-06-10T15:16:48;27.50;39.20
48806;DHT22;34625;47.176;27.548;2023-06-10T15:19:14;27.40;39.40
48806;DHT22;34625;47.176;27.548;2023-06-10T15:21:40;27.40;40.30
48806;DHT22;34625;47.176;27.548;2023-06-10T15:24:09;27.50;41.40
48806;DHT22;34625;47.176;27.548;2023-06-10T15:26:35;27.40;43.80
48806;DHT22;34625;47.176;27.548;2023-06-10T15:29:01;27.60;45.00
48806;DHT22;34625;47.176;27.548;2023-06-10T15:31:30;27.70;44.30
48806;DHT22;34625;47.176;27.548;2023-06-10T15:34:00;27.70;45.00
48806;DHT22;34625;47.176;27.548;2023-06-10T15:36:27;27.70;46.40
48806;DHT22;34625;47.176;27.548;2023-06-10T15:38:53;27.90;48.30
48806;DHT22;34625;47.176;27.548;2023-06-10T15:41:20;27.90;46.10
48806;DHT22;34625;47.176;27.548;2023-06-10T15:43:46;27.80;44.30
48806;DHT22;34625;47.176;27.548;2023-06-10T15:46:13;27.70;44.50